• Join FlightAware (Why Join?)
  • Login
  • US Flag GB Flag 
02:18 EDT


 

Airport Tracker/Info


-or-


 

Live Flight TrackerFlight Track Log ✈ ASQ4209 ✈ 28-May-2013 ✈ KRDU - KEWR

Flight Track Log - Related Links

Times and Time Zones

All times are in EDT time to prevent confusion due to time zone crossing. See the ASQ4209 flight status page for this flight to view local times or setup timezone preferences in your user account.

Time Position Orientation Groundspeed Altitude Reporting Facility
EDT Latitude Longitude Course Direction KTS MPH feet Rate Location/Type
15:58 35.8686 -78.8114 11° North 163 188 1,000  Level Washington Center
15:59 35.8600 -78.8239 230° Southwest 170 196 1,600 2,160 Climbing Washington Center
16:00 35.8436 -78.8922 254° West 230 265 4,600 2,580 Climbing Washington Center
16:01 36.1105 -78.6895 39° Northeast  Level FlightAware Approximate
16:01 35.8858 -78.9453 314° West 222 255 7,700  Level Washington Center
16:02 36.1911 -78.6586 19° North  Level FlightAware Approximate
16:02 35.9414 -78.9733 338° Northwest 207 238 9,900  Level Washington Center
16:03 36.2724 -78.6259 15° North  Level FlightAware Approximate
16:03 36.0181 -78.9150 32° Northeast 239 275 10,800  Level Washington Center
16:04 36.3551 -78.5987 11° North  Level FlightAware Approximate
16:04 36.1056 -78.8467 32° Northeast 293 337 12,600  Level Washington Center
16:05 36.1994 -78.7683 34° Northeast 357 411 14,800 1,800 Climbing Washington Center
16:06 36.2869 -78.6969 33° Northeast 372 428 16,200 1,440 Climbing Washington Center
16:07 36.3786 -78.6233 33° Northeast 378 435 17,800 1,260 Climbing Washington Center
16:08 36.4653 -78.5750 24° Northeast 378 435 18,800 1,200 Climbing Washington Center
16:09 36.5706 -78.5378 16° North 378 435 20,200 1,440 Climbing Washington Center
16:10 36.6758 -78.5003 16° North 384 442 21,700 1,260 Climbing Washington Center
16:11 36.7772 -78.4469 23° Northeast 384 442 22,800 1,140 Climbing Washington Center
16:12 36.8772 -78.3675 32° Northeast 396 456 24,000 1,320 Climbing Washington Center
16:13 36.9814 -78.2828 33° Northeast 403 464 25,500 1,260 Climbing Washington Center
16:14 37.0792 -78.2006 34° Northeast 415 478 26,600 720 Climbing Washington Center
16:15 37.1661 -78.1303 33° Northeast 422 486 27,000 180 Climbing Washington Center
16:16 37.2722 -78.0425 33° Northeast 434 499 27,000  Level Washington Center
16:17 37.3847 -77.9494 33° Northeast 452 520 27,000  Level Washington Center
16:18 37.4950 -77.8561 34° Northeast 471 542 27,000  Level Washington Center
16:19 37.6072 -77.7597 34° Northeast 477 549 27,000  Level Washington Center
16:20 37.7156 -77.6578 37° Northeast 477 549 27,000  Level Washington Center
16:21 37.8275 -77.5583 35° Northeast 483 556 27,000  Level Washington Center
16:22 37.9356 -77.4583 36° Northeast 483 556 27,000  Level Washington Center
16:23 38.0581 -77.3508 35° Northeast 483 556 27,000  Level Washington Center
16:24 38.1681 -77.2478 36° Northeast 481 554 27,000  Level Washington Center
16:25 38.2672 -77.1519 37° Northeast 492 566 27,000  Level Washington Center
16:26 38.3875 -77.0433 35° Northeast 486 559 27,000  Level Washington Center
16:27 38.4972 -76.9419 36° Northeast 481 554 27,000  Level Washington Center
16:28 38.6067 -76.8378 37° Northeast 481 554 27,000  Level Washington Center
16:29 38.7142 -76.7331 37° Northeast 481 554 27,000  Level Washington Center
16:30 38.8131 -76.6200 42° Northeast 481 554 27,000  Level Washington Center
16:31 38.9036 -76.5119 43° Northeast 481 554 27,000  Level Washington Center
16:32 39.0044 -76.3983 41° Northeast 481 554 27,000  Level Washington Center
16:33 39.1011 -76.2844 42° Northeast 481 554 27,000  Level Washington Center
16:34 39.2164 -76.1569 41° Northeast 475 547 27,000  Level Washington Center
16:35 39.3147 -76.0422 42° Northeast 480 552 27,000  Level Washington Center
16:36 39.4111 -75.9272 43° Northeast 480 552 27,000 -300 Level Washington Center
16:37 39.5092 -75.8122 42° Northeast 474 545 26,400 -1,260 Descending Washington Center
16:38 39.6031 -75.6992 43° Northeast 474 545 24,600 -2,160 Descending Washington Center
16:39 39.6969 -75.5889 42° Northeast 468 539 22,200 -2,400 Descending Washington Center
16:40 39.7886 -75.4753 44° Northeast 463 533 19,800 -2,220 Descending Washington Center
16:41 39.8697 -75.3778 43° Northeast 453 521 17,800 -2,100 Descending Washington Center
16:42 39.9547 -75.2747 43° Northeast 429 494 15,700 -2,220 Descending Washington Center
16:43 40.0358 -75.1769 43° Northeast 412 474 13,500 -2,100 Descending Washington Center
16:44 40.1125 -75.0842 43° Northeast 387 445 11,500 -1,620 Descending Washington Center
16:45 40.2167 -74.9500 45° Northeast 304 350 9,500 -1,380 Descending New York TRACON
16:46 40.2667 -74.8833 45° Northeast 288 331 8,200 -720 Descending New York TRACON
16:47 40.3333 -74.8000 44° Northeast 288 331 8,100 -540 Descending New York TRACON
16:48 40.3833 -74.7333 45° Northeast 288 331 7,200 -960 Descending New York TRACON
16:49 40.4500 -74.6667 37° Northeast 281 323 6,200 -600 Descending New York TRACON
16:50 40.5167 -74.6500 11° North 268 308 6,100 -60 Descending New York TRACON
16:51 40.5833 -74.6333 11° North 272 313 6,100  Level New York TRACON
16:52 40.6500 -74.6000 21° North 271 312 6,100 -240 Level New York TRACON
16:53 40.7333 -74.5500 24° Northeast 276 318 5,700 -480 Descending New York TRACON
16:54 40.7833 -74.5000 37° Northeast 274 315 5,100 -300 Descending New York TRACON
16:55 40.8500 -74.4500 30° Northeast 275 316 5,100  Level New York TRACON
16:56 40.9167 -74.4000 30° Northeast 276 318 5,100  Level New York TRACON
16:57 40.9667 -74.3167 52° Northeast 288 331 5,100 -420 Level New York TRACON
16:58 40.9500 -74.2167 102° East 278 320 4,300 -540 Descending New York TRACON
16:59 40.9167 -74.1500 123° Southeast 231 266 4,100 -540 Descending New York TRACON
17:01 40.8667 -74.1000 143° Southeast 223 257 3,200 -780 Descending New York TRACON
17:01 40.8167 -74.0833 166° South 205 236 2,600 -720 Descending New York TRACON